Terminal Aerodrome Forecast
Issued by NWS

Home | Current Version | Previous Version | Text Only | Print | Product List | Glossary On
Versions: 1 2 3 4 5 6 7 8 9 10 11 12 13 14 15 16
000
FTUS43 KICT 011530 AAA
TAFSLN
TAF AMD
KSLN 011530Z 0115/0212 20014KT P6SM SKC
     FM011700 17012G18KT P6SM SCT250
     FM020100 16008KT P6SM BKN250
     FM020900 18008KT P6SM OVC100=

USA.gov is the U.S. government's official web portal to all federal, state and local government web resources and services.